Time;durP1;ratioP1;P1;durP2;ratioP2;P2;SDS_P1;SDS_P2;PMS_P1;PMS_P2;Temp;Humidity;BMP_temperature;BMP_pressure;BME280_temperature;BME280_humidity;BME280_pressure;Samples;Min_cycle;Max_cycle;Signal;HPM_P1;HPM_P2
2021/10/01 01:21:32;;;;;;;10.25;1.88;;;13.30;92.10;;;;;;4896463;29;20048;-69
2021/10/01 01:24:15;;;;;;;4.93;1.50;;;13.30;92.20;;;;;;4888992;29;20048;-69
2021/10/01 01:27:04;;;;;;;8.93;1.70;;;13.30;92.50;;;;;;4900876;29;20525;-69
2021/10/01 01:30:06;;;;;;;9.10;1.73;;;13.30;92.60;;;;;;4894905;29;20490;-69
2021/10/01 01:32:41;;;;;;;5.97;1.48;;;13.20;92.70;;;;;;4897723;29;20056;-69
2021/10/01 01:35:13;;;;;;;4.93;1.30;;;13.20;92.70;;;;;;4899663;29;20067;-69
2021/10/01 01:37:58;;;;;;;8.55;1.50;;;13.20;92.80;;;;;;4897676;29;20047;-69
2021/10/01 01:40:29;;;;;;;4.07;1.05;;;13.20;92.80;;;;;;4891944;29;20052;-69
2021/10/01 01:42:59;;;;;;;5.07;0.98;;;13.20;92.90;;;;;;4881811;29;20399;-69
2021/10/01 01:45:27;;;;;;;5.18;0.80;;;13.20;92.80;;;;;;4879724;29;20068;-69
2021/10/01 01:47:56;;;;;;;4.25;0.85;;;13.10;92.70;;;;;;4894227;29;20057;-69
2021/10/01 01:50:24;;;;;;;4.15;1.00;;;13.20;92.70;;;;;;4878680;29;20052;-69
2021/10/01 01:52:54;;;;;;;3.67;0.75;;;13.10;92.70;;;;;;4880588;29;20052;-69
2021/10/01 01:55:23;;;;;;;3.03;0.75;;;13.10;92.70;;;;;;4863606;29;20060;-70
2021/10/01 01:57:52;;;;;;;1.83;0.65;;;13.00;92.70;;;;;;4866663;29;20391;-69
2021/10/01 02:00:40;;;;;;;5.38;0.90;;;13.00;92.80;;;;;;4878983;29;20510;-70
2021/10/01 02:03:08;;;;;;;1.70;1.00;;;13.00;92.80;;;;;;4884355;29;20068;-71
2021/10/01 02:05:39;;;;;;;1.83;0.93;;;13.10;92.90;;;;;;4877617;29;20045;-72
2021/10/01 02:08:08;;;;;;;3.88;1.00;;;13.10;93.00;;;;;;4908108;29;20045;-72
2021/10/01 02:10:37;;;;;;;7.38;1.27;;;13.00;93.00;;;;;;4900509;29;20049;-73
2021/10/01 02:13:09;;;;;;;4.45;0.50;;;13.00;93.10;;;;;;4896966;29;20053;-73
2021/10/01 02:15:41;;;;;;;1.58;0.50;;;13.00;93.20;;;;;;4894210;29;20052;-72
2021/10/01 02:18:09;;;;;;;3.63;0.50;;;13.10;93.20;;;;;;4897671;29;20525;-74
2021/10/01 02:20:38;;;;;;;2.33;0.60;;;13.00;93.20;;;;;;4898160;29;20052;-74
2021/10/01 02:23:06;;;;;;;1.65;0.60;;;13.10;93.30;;;;;;4885031;29;20608;-73
2021/10/01 02:28:36;;;;;;;1.08;0.40;;;13.10;93.30;;;;;;4886584;29;20048;-69
2021/10/01 02:31:12;;;;;;;0.90;0.50;;;13.00;93.40;;;;;;4879417;29;20051;-69
2021/10/01 02:33:42;;;;;;;2.65;0.30;;;13.10;93.40;;;;;;4879160;29;20045;-68
2021/10/01 02:36:10;;;;;;;1.17;0.40;;;13.00;93.40;;;;;;4862466;29;20053;-69
2021/10/01 02:38:42;;;;;;;0.55;0.20;;;13.00;93.40;;;;;;4892886;29;20061;-69
2021/10/01 02:41:10;;;;;;;2.15;0.20;;;13.00;93.30;;;;;;4893513;29;20049;-69
2021/10/01 02:43:38;;;;;;;0.40;0.20;;;13.10;93.30;;;;;;4896066;29;20052;-69
2021/10/01 02:46:07;;;;;;;0.85;0.30;;;13.10;93.20;;;;;;4865700;29;20040;-69
2021/10/01 02:48:36;;;;;;;1.55;0.40;;;13.10;93.00;;;;;;4892940;29;20406;-70
2021/10/01 02:51:11;;;;;;;0.70;0.20;;;13.10;93.00;;;;;;4880056;29;20045;-70
2021/10/01 02:54:07;;;;;;;1.58;0.45;;;13.10;93.00;;;;;;4897296;29;20056;-70
2021/10/01 02:57:01;;;;;;;0.73;0.20;;;13.10;92.90;;;;;;4901232;29;20052;-69
2021/10/01 02:59:32;;;;;;;0.98;0.25;;;13.10;92.90;;;;;;4896791;29;20049;-69
2021/10/01 03:02:01;;;;;;;1.00;0.30;;;13.10;92.80;;;;;;4880687;29;20044;-69
2021/10/01 03:04:30;;;;;;;0.77;0.25;;;13.00;92.80;;;;;;4897375;29;20044;-69
2021/10/01 03:07:01;;;;;;;1.55;0.30;;;13.00;92.90;;;;;;4880699;29;20410;-69
2021/10/01 03:09:29;;;;;;;0.20;0.20;;;13.00;92.90;;;;;;4879913;29;20041;-70
2021/10/01 03:11:59;;;;;;;1.00;0.47;;;13.00;92.90;;;;;;4880286;29;20502;-70
2021/10/01 03:14:28;;;;;;;1.25;0.40;;;13.00;92.80;;;;;;4889647;29;20055;-71
2021/10/01 03:16:57;;;;;;;1.17;0.32;;;13.00;92.80;;;;;;4902646;29;20040;-72
2021/10/01 03:19:26;;;;;;;1.05;0.43;;;12.90;92.80;;;;;;4877316;29;20124;-71
2021/10/01 03:21:55;;;;;;;1.25;0.40;;;12.90;92.80;;;;;;4864623;29;20052;-70
2021/10/01 03:24:23;;;;;;;1.88;0.47;;;12.80;92.70;;;;;;4871714;29;20064;-69
2021/10/01 03:26:51;;;;;;;1.50;0.43;;;12.80;92.70;;;;;;4846393;29;20056;-69
2021/10/01 03:29:19;;;;;;;1.05;0.20;;;12.70;92.70;;;;;;4868434;29;20056;-69
2021/10/01 03:31:49;;;;;;;0.88;0.20;;;12.70;92.70;;;;;;4880041;29;20041;-69
2021/10/01 03:34:17;;;;;;;0.75;0.28;;;12.60;92.70;;;;;;4872696;29;20057;-70
2021/10/01 03:36:49;;;;;;;1.27;0.30;;;12.60;92.70;;;;;;4879902;29;20045;-70
2021/10/01 03:39:21;;;;;;;0.57;0.32;;;12.60;92.80;;;;;;4879992;29;20311;-70
2021/10/01 03:41:50;;;;;;;;;;;12.50;92.80;;;;;;4893077;29;20075;-70
2021/10/01 03:44:18;;;;;;;1.85;0.20;;;12.50;92.90;;;;;;4851980;29;19934;-69
2021/10/01 03:46:48;;;;;;;2.85;0.40;;;12.40;92.90;;;;;;4888089;29;20062;-69
2021/10/01 03:49:16;;;;;;;1.27;0.40;;;12.40;92.90;;;;;;4891673;29;20057;-69
2021/10/01 03:51:44;;;;;;;1.40;0.50;;;12.30;92.90;;;;;;4865162;29;20053;-69
2021/10/01 03:54:12;;;;;;;3.35;0.90;;;12.30;92.90;;;;;;4895549;29;20052;-68
2021/10/01 03:56:40;;;;;;;0.82;0.43;;;12.30;92.90;;;;;;4896055;29;20426;-68
2021/10/01 03:59:07;;;;;;;1.20;0.50;;;12.30;93.00;;;;;;4881679;29;20056;-68
2021/10/01 04:01:35;;;;;;;5.18;0.63;;;12.20;93.00;;;;;;4898652;29;20041;-68
2021/10/01 04:04:03;;;;;;;5.30;0.68;;;12.20;93.00;;;;;;4900447;29;20053;-70
2021/10/01 04:06:32;;;;;;;1.92;0.70;;;12.20;93.00;;;;;;4896724;29;20052;-70
2021/10/01 04:08:59;;;;;;;5.53;0.50;;;12.10;93.00;;;;;;4918658;29;20037;-69
2021/10/01 04:11:27;;;;;;;2.00;0.80;;;12.20;92.90;;;;;;4898922;29;20049;-68
2021/10/01 04:13:54;;;;;;;2.58;0.65;;;12.10;92.90;;;;;;4880128;29;20045;-68
2021/10/01 04:16:22;;;;;;;5.45;1.00;;;12.10;93.00;;;;;;4895977;29;20060;-68
2021/10/01 04:18:50;;;;;;;4.13;0.98;;;12.00;93.00;;;;;;4865787;29;20045;-68
2021/10/01 04:21:18;;;;;;;3.15;0.80;;;12.10;93.00;;;;;;4882995;29;20497;-68
2021/10/01 04:23:47;;;;;;;5.53;0.90;;;12.00;93.00;;;;;;4889015;29;20063;-68
2021/10/01 04:26:23;;;;;;;5.85;1.00;;;12.00;93.00;;;;;;4905649;29;20049;-68
2021/10/01 04:28:52;;;;;;;4.18;0.75;;;12.00;92.90;;;;;;4880289;29;20045;-68
2021/10/01 04:31:19;;;;;;;3.92;1.42;;;12.00;92.90;;;;;;4882888;29;20514;-68
2021/10/01 04:33:47;;;;;;;2.40;0.60;;;12.00;92.90;;;;;;4869048;29;20422;-68
2021/10/01 04:36:15;;;;;;;4.50;0.98;;;11.90;92.80;;;;;;4892666;29;20040;-68
2021/10/01 04:38:43;;;;;;;4.22;0.82;;;11.90;92.70;;;;;;4882030;29;20075;-68
2021/10/01 04:41:11;;;;;;;8.13;1.10;;;11.90;92.70;;;;;;4881279;29;20045;-68
2021/10/01 04:43:40;;;;;;;6.30;0.90;;;11.90;92.70;;;;;;4894944;29;20041;-68
2021/10/01 04:46:09;;;;;;;3.38;0.80;;;11.90;92.70;;;;;;4896883;29;20503;-68
2021/10/01 04:48:37;;;;;;;3.40;0.60;;;11.80;92.70;;;;;;4883018;29;20044;-68
2021/10/01 04:51:06;;;;;;;2.63;0.60;;;11.90;92.60;;;;;;4879273;29;20057;-69
2021/10/01 04:53:34;;;;;;;3.03;0.93;;;11.90;92.50;;;;;;4864465;29;20536;-69
2021/10/01 04:56:03;;;;;;;2.17;0.70;;;11.90;92.50;;;;;;4879534;29;20057;-69
2021/10/01 04:58:30;;;;;;;3.25;0.88;;;11.90;92.50;;;;;;4919108;29;20028;-69
2021/10/01 05:01:04;;;;;;;5.90;0.88;;;11.90;92.60;;;;;;4887916;29;20049;-69
2021/10/01 05:03:58;;;;;;;4.28;0.82;;;11.90;92.60;;;;;;4858951;29;20064;-69
2021/10/01 05:06:37;;;;;;;6.40;0.98;;;11.90;92.60;;;;;;4880371;29;20056;-68
2021/10/01 05:09:24;;;;;;;5.65;0.93;;;11.80;92.70;;;;;;4880728;29;20041;-69
2021/10/01 05:12:12;;;;;;;4.47;0.90;;;11.90;92.70;;;;;;4880437;29;20399;-69
2021/10/01 05:14:59;;;;;;;2.60;0.63;;;11.90;92.70;;;;;;4885689;29;20055;-69
2021/10/01 05:17:45;;;;;;;1.60;0.40;;;11.80;92.90;;;;;;4886688;29;20410;-69
2021/10/01 05:20:32;;;;;;;2.50;0.80;;;11.80;92.90;;;;;;4880188;29;20068;-69
2021/10/01 05:23:13;;;;;;;3.92;0.88;;;11.80;93.00;;;;;;4897686;29;20052;-70
2021/10/01 05:25:41;;;;;;;1.90;0.70;;;11.90;92.90;;;;;;4887644;29;20052;-69
2021/10/01 05:28:08;;;;;;;2.72;0.70;;;11.90;93.00;;;;;;4892622;29;20475;-70
2021/10/01 05:30:36;;;;;;;3.95;0.80;;;11.90;93.00;;;;;;4879812;29;20053;-69
2021/10/01 05:33:07;;;;;;;4.22;0.70;;;11.90;93.10;;;;;;4879071;29;20529;-69
2021/10/01 05:35:35;;;;;;;3.10;0.50;;;11.90;93.00;;;;;;4881999;29;20495;-69
2021/10/01 05:38:03;;;;;;;2.25;0.50;;;11.90;93.00;;;;;;4898916;29;20063;-70
2021/10/01 05:40:31;;;;;;;2.83;0.75;;;12.00;92.70;;;;;;4886039;29;20056;-70
2021/10/01 05:43:02;;;;;;;3.50;0.60;;;12.00;92.60;;;;;;4889591;29;20044;-70
2021/10/01 05:45:30;;;;;;;1.83;0.30;;;12.00;92.60;;;;;;4884665;29;20044;-70
2021/10/01 05:48:35;;;;;;;1.00;0.40;;;12.00;92.50;;;;;;4851044;29;20053;-71
2021/10/01 05:51:22;;;;;;;0.98;0.50;;;12.00;92.60;;;;;;4877803;29;20057;-70
2021/10/01 05:56:55;;;;;;;1.35;0.20;;;11.90;92.40;;;;;;4858594;29;20060;-70
2021/10/01 05:59:30;;;;;;;2.30;0.50;;;12.00;92.50;;;;;;4858198;29;20053;-71
2021/10/01 06:01:58;;;;;;;2.05;0.40;;;11.90;92.40;;;;;;4857798;29;20064;-71
2021/10/01 06:04:26;;;;;;;1.30;0.40;;;11.90;92.40;;;;;;4848951;29;20441;-71
2021/10/01 06:06:54;;;;;;;1.83;0.40;;;11.90;92.30;;;;;;4839945;29;20077;-71
2021/10/01 06:09:22;;;;;;;1.77;0.45;;;11.90;92.40;;;;;;4840366;29;20053;-70
2021/10/01 06:11:50;;;;;;;0.95;0.40;;;11.90;92.40;;;;;;4845665;29;20064;-70
2021/10/01 06:14:22;;;;;;;1.48;0.50;;;11.90;92.50;;;;;;4864348;29;20068;-70
2021/10/01 06:16:51;;;;;;;3.22;0.60;;;11.80;92.50;;;;;;4882424;29;20049;-71
2021/10/01 06:19:20;;;;;;;3.78;0.60;;;11.80;92.60;;;;;;4878392;29;20049;-70
2021/10/01 06:21:48;;;;;;;2.45;0.52;;;11.80;92.60;;;;;;4860420;29;20396;-73
2021/10/01 06:24:16;;;;;;;1.98;0.50;;;11.80;92.60;;;;;;4861854;29;20056;-71
2021/10/01 06:26:44;;;;;;;1.38;0.40;;;11.80;92.70;;;;;;4864201;29;20413;-71
2021/10/01 06:29:11;;;;;;;3.50;0.40;;;11.80;92.70;;;;;;4862898;29;20432;-71
2021/10/01 06:31:39;;;;;;;2.17;0.50;;;11.80;92.70;;;;;;4865649;29;20060;-71
2021/10/01 06:34:07;;;;;;;2.60;0.43;;;11.80;92.70;;;;;;4887846;29;20044;-71
2021/10/01 06:36:34;;;;;;;1.98;0.32;;;11.80;92.60;;;;;;4869676;29;20522;-71
2021/10/01 06:39:03;;;;;;;2.30;0.50;;;11.80;92.50;;;;;;4867955;29;20053;-71
2021/10/01 06:41:30;;;;;;;3.15;0.47;;;11.80;92.30;;;;;;4882668;29;20042;-72
2021/10/01 06:44:01;;;;;;;2.35;0.50;;;11.80;92.20;;;;;;4886887;29;20060;-71
2021/10/01 06:46:47;;;;;;;3.00;0.63;;;11.80;92.20;;;;;;4874807;29;20049;-72
2021/10/01 06:49:38;;;;;;;3.70;0.52;;;11.80;92.10;;;;;;4870582;29;20045;-71
2021/10/01 07:23:04;;;;;;;7.82;1.20;;;12.00;89.40;;;;;;4891728;29;20402;-72
2021/10/01 08:21:24;;;;;;;8.93;1.30;;;13.10;86.60;;;;;;4889486;29;20041;-73
2021/10/01 08:24:12;;;;;;;6.53;1.00;;;13.20;86.40;;;;;;4888252;29;20053;-72
2021/10/01 08:26:41;;;;;;;10.50;1.55;;;13.30;85.70;;;;;;4875275;29;20527;-73
2021/10/01 08:29:09;;;;;;;10.35;1.83;;;13.20;85.70;;;;;;4876339;29;20488;-73
2021/10/01 08:31:37;;;;;;;19.40;1.67;;;13.20;86.00;;;;;;4878440;29;20187;-73
2021/10/01 08:34:05;;;;;;;15.98;1.85;;;13.10;86.00;;;;;;4878483;29;20072;-73
2021/10/01 08:36:33;;;;;;;9.93;1.70;;;13.10;86.20;;;;;;4878419;29;20057;-73
2021/10/01 08:39:07;;;;;;;10.90;1.85;;;13.10;86.40;;;;;;4879007;29;20064;-73
2021/10/01 08:41:39;;;;;;;10.63;1.58;;;13.10;86.50;;;;;;4878649;29;20052;-72
2021/10/01 08:44:07;;;;;;;10.55;1.73;;;13.00;86.30;;;;;;4880607;29;20053;-71
2021/10/01 08:46:35;;;;;;;11.90;2.08;;;13.00;86.60;;;;;;4880676;29;20060;-69
2021/10/01 08:49:04;;;;;;;9.00;1.23;;;12.90;87.10;;;;;;4878912;29;20078;-68
2021/10/01 08:51:32;;;;;;;13.80;1.70;;;12.90;87.50;;;;;;4872037;29;20064;-68
2021/10/01 08:54:00;;;;;;;10.25;1.67;;;12.80;87.60;;;;;;4919157;29;20052;-69
2021/10/01 08:56:28;;;;;;;11.13;1.60;;;12.80;87.90;;;;;;4921799;29;20070;-69
2021/10/01 08:58:55;;;;;;;6.97;1.10;;;12.80;88.00;;;;;;4928919;29;20060;-69
2021/10/01 09:01:23;;;;;;;8.10;1.60;;;12.90;87.50;;;;;;4904751;29;20056;-69
2021/10/01 09:03:52;;;;;;;15.57;1.60;;;12.90;87.50;;;;;;4917853;29;20052;-70
2021/10/01 09:06:20;;;;;;;15.00;2.08;;;13.00;87.30;;;;;;4917046;29;20056;-70
2021/10/01 09:08:52;;;;;;;6.00;1.33;;;13.10;87.20;;;;;;4919001;29;20055;-70
2021/10/01 09:11:33;;;;;;;9.90;2.03;;;13.20;87.20;;;;;;4924499;29;20052;-71
2021/10/01 09:14:09;;;;;;;11.82;1.50;;;13.30;86.70;;;;;;4942048;29;20034;-70
2021/10/01 09:16:39;;;;;;;8.68;1.55;;;13.30;86.60;;;;;;4902123;29;20063;-70
2021/10/01 09:19:08;;;;;;;9.60;1.85;;;13.50;85.80;;;;;;4898490;29;20052;-71
2021/10/01 09:21:48;;;;;;;9.70;1.55;;;13.50;84.50;;;;;;4898052;29;20056;-71
2021/10/01 09:24:24;;;;;;;8.63;1.48;;;13.50;84.90;;;;;;4904351;29;20052;-71
2021/10/01 09:26:57;;;;;;;8.65;1.40;;;13.50;84.20;;;;;;4900132;29;20052;-71
2021/10/01 09:29:33;;;;;;;8.27;2.28;;;13.50;83.30;;;;;;4917545;29;20048;-72
2021/10/01 09:32:11;;;;;;;7.68;1.20;;;13.40;83.50;;;;;;4917321;29;20056;-72
2021/10/01 09:34:49;;;;;;;6.15;1.08;;;13.40;82.60;;;;;;4917546;29;20052;-72
2021/10/01 09:37:22;;;;;;;10.10;1.25;;;13.30;82.40;;;;;;4917228;29;20434;-73
2021/10/01 09:39:52;;;;;;;7.95;1.30;;;13.30;82.70;;;;;;4920509;29;20052;-73
2021/10/01 09:42:21;;;;;;;9.00;1.67;;;13.30;82.80;;;;;;4930387;29;20052;-72
2021/10/01 09:44:52;;;;;;;4.22;0.98;;;13.30;82.00;;;;;;4921836;29;20406;-73
2021/10/01 09:47:31;;;;;;;6.97;0.90;;;13.30;82.10;;;;;;4917791;29;20406;-73
2021/10/01 09:50:05;;;;;;;4.03;0.80;;;13.20;81.70;;;;;;4917500;29;20051;-73
2021/10/01 09:52:48;;;;;;;8.38;1.08;;;13.10;81.30;;;;;;4917580;29;20496;-72
2021/10/01 09:55:17;;;;;;;5.18;0.80;;;13.00;81.10;;;;;;4917857;29;20055;-72
2021/10/01 09:58:02;;;;;;;10.60;1.75;;;13.00;80.50;;;;;;4919147;29;20059;-73
2021/10/01 10:00:40;;;;;;;7.78;1.30;;;13.00;80.40;;;;;;4917430;29;20055;-72
2021/10/01 10:03:23;;;;;;;5.78;1.02;;;13.00;80.40;;;;;;4930508;29;20040;-73
2021/10/01 10:06:13;;;;;;;4.15;1.08;;;13.20;80.70;;;;;;4929237;29;20052;-72
2021/10/01 10:08:45;;;;;;;6.35;0.90;;;13.30;80.20;;;;;;4917018;29;20426;-72
2021/10/01 10:11:16;;;;;;;6.97;0.95;;;13.30;79.30;;;;;;4916662;29;20056;-73
2021/10/01 10:13:49;;;;;;;8.80;1.15;;;13.40;78.80;;;;;;4916924;29;20055;-73
2021/10/01 10:16:18;;;;;;;3.67;0.50;;;13.60;77.30;;;;;;4901339;29;20060;-72
2021/10/01 10:18:50;;;;;;;12.13;0.90;;;13.80;75.60;;;;;;4897331;29;20044;-73
2021/10/01 10:21:19;;;;;;;5.10;0.70;;;13.80;73.10;;;;;;4897872;29;20052;-73
2021/10/01 10:23:46;;;;;;;4.10;0.30;;;13.90;72.30;;;;;;4897909;29;20063;-73
2021/10/01 10:26:15;;;;;;;5.47;0.20;;;14.10;71.40;;;;;;4897741;29;20045;-73
2021/10/01 10:28:44;;;;;;;3.72;0.70;;;14.30;70.00;;;;;;4896487;29;20100;-73
2021/10/01 10:31:16;;;;;;;2.97;1.02;;;14.40;68.60;;;;;;4898071;29;20052;-73
2021/10/01 10:33:50;;;;;;;7.07;0.90;;;14.50;70.20;;;;;;4898731;29;20047;-73
2021/10/01 10:36:27;;;;;;;12.13;1.23;;;14.70;71.20;;;;;;4881900;29;20065;-74
2021/10/01 10:38:59;;;;;;;3.47;0.88;;;14.80;71.40;;;;;;4880323;29;20067;-75
2021/10/01 10:41:29;;;;;;;3.28;0.68;;;14.80;70.30;;;;;;4897704;29;20044;-74
2021/10/01 10:43:56;;;;;;;5.43;0.63;;;14.60;70.60;;;;;;4897601;29;20494;-74
2021/10/01 10:46:34;;;;;;;3.30;0.65;;;14.40;69.90;;;;;;4880652;29;20063;-74
2021/10/01 10:49:14;;;;;;;20.75;1.63;;;14.10;70.30;;;;;;4896815;29;20057;-74
2021/10/01 10:52:15;;;;;;;3.53;0.80;;;13.90;70.80;;;;;;4899240;29;20056;-74
2021/10/01 10:54:52;;;;;;;7.80;0.98;;;13.80;71.20;;;;;;4915755;29;20050;-75
2021/10/01 10:57:22;;;;;;;4.38;0.73;;;13.80;70.80;;;;;;4893856;29;20052;-73
2021/10/01 10:59:54;;;;;;;4.75;0.55;;;13.80;71.10;;;;;;4900488;29;20073;-73
2021/10/01 11:02:29;;;;;;;4.32;0.70;;;13.80;70.30;;;;;;4900996;29;20052;-73
2021/10/01 11:05:27;;;;;;;4.70;0.70;;;13.90;69.00;;;;;;4897443;29;20035;-72
2021/10/01 11:08:03;;;;;;;6.72;0.60;;;14.30;68.30;;;;;;4914212;29;20056;-74
2021/10/01 11:10:43;;;;;;;3.83;0.63;;;14.70;66.60;;;;;;4899011;29;20067;-73
2021/10/01 11:13:24;;;;;;;5.50;1.00;;;14.90;65.40;;;;;;4884604;29;20067;-74
2021/10/01 11:16:11;;;;;;;5.63;1.00;;;15.00;64.80;;;;;;4919145;29;20434;-73
2021/10/01 11:18:42;;;;;;;4.53;0.70;;;15.00;65.40;;;;;;4918923;29;20063;-74
2021/10/01 11:21:26;;;;;;;6.90;1.35;;;15.10;63.20;;;;;;4899868;29;20506;-74
2021/10/01 11:24:02;;;;;;;3.60;0.70;;;15.30;63.10;;;;;;4923338;29;20341;-74
2021/10/01 11:26:45;;;;;;;4.15;0.57;;;15.40;61.20;;;;;;4918010;29;20048;-73
2021/10/01 11:29:22;;;;;;;4.13;0.87;;;15.50;60.60;;;;;;4916309;29;20498;-75
2021/10/01 11:32:02;;;;;;;4.93;0.80;;;15.40;61.00;;;;;;4916200;29;20301;-74
2021/10/01 11:34:47;;;;;;;7.70;0.82;;;15.40;60.60;;;;;;4916066;29;20048;-74
2021/10/01 11:37:21;;;;;;;5.30;0.68;;;15.30;58.40;;;;;;4915801;29;20056;-75
2021/10/01 11:39:48;;;;;;;;;;;15.30;57.10;;;;;;4916688;29;20672;-74
2021/10/01 11:42:26;;;;;;;6.47;0.75;;;15.00;56.40;;;;;;4917123;29;19923;-74
2021/10/01 11:44:55;;;;;;;3.22;0.43;;;14.60;57.50;;;;;;4928413;29;20063;-74
2021/10/01 11:47:24;;;;;;;15.20;1.10;;;14.50;59.20;;;;;;4929265;29;20079;-75
2021/10/01 11:49:55;;;;;;;3.30;0.60;;;14.20;59.70;;;;;;4916149;29;20395;-75
2021/10/01 11:52:23;;;;;;;5.30;0.40;;;14.20;59.70;;;;;;4915755;29;20048;-74
2021/10/01 11:54:53;;;;;;;6.28;0.65;;;14.10;58.40;;;;;;4899452;29;20056;-75
2021/10/01 11:57:21;;;;;;;1.50;0.35;;;14.10;59.70;;;;;;4918747;29;20059;-74
2021/10/01 11:59:52;;;;;;;3.88;0.60;;;14.50;58.00;;;;;;4917787;29;20052;-75
2021/10/01 12:02:38;;;;;;;6.90;0.80;;;14.80;57.60;;;;;;4914236;29;20052;-75
2021/10/01 12:05:21;;;;;;;4.82;0.95;;;15.20;58.40;;;;;;4918359;29;20063;-75
2021/10/01 12:08:03;;;;;;;3.42;0.73;;;15.70;57.40;;;;;;4921476;29;20067;-75
2021/10/01 12:10:43;;;;;;;8.32;1.00;;;16.30;54.90;;;;;;4907573;29;20048;-75
2021/10/01 12:13:32;;;;;;;3.00;0.50;;;16.50;53.00;;;;;;4902704;29;20521;-76
2021/10/01 12:16:20;;;;;;;7.53;1.38;;;16.80;52.60;;;;;;4911405;29;20376;-75
2021/10/01 12:19:05;;;;;;;22.58;2.53;;;16.90;52.30;;;;;;4904658;29;20410;-76
2021/10/01 12:21:35;;;;;;;6.55;0.70;;;17.00;52.20;;;;;;4900696;29;20503;-75
2021/10/01 12:24:14;;;;;;;3.22;0.63;;;16.70;51.50;;;;;;4900749;29;20075;-75
2021/10/01 12:26:43;;;;;;;7.30;1.13;;;16.50;52.20;;;;;;4899020;29;20063;-75
2021/10/01 12:29:25;;;;;;;6.18;0.60;;;16.40;54.20;;;;;;4899428;29;20511;-75
2021/10/01 12:32:00;;;;;;;3.03;0.50;;;16.40;51.80;;;;;;4898479;29;20064;-76
2021/10/01 12:34:33;;;;;;;81.72;8.88;;;16.50;52.30;;;;;;4887307;29;20064;-76
2021/10/01 12:37:11;;;;;;;45.88;2.60;;;16.80;51.50;;;;;;4922461;29;20041;-76
2021/10/01 12:39:41;;;;;;;4.28;0.88;;;16.80;51.10;;;;;;4906825;29;20053;-76
2021/10/01 12:42:19;;;;;;;4.25;0.70;;;17.00;50.40;;;;;;4900181;29;20052;-76
2021/10/01 12:45:07;;;;;;;17.17;1.98;;;16.90;50.90;;;;;;4883184;29;20052;-77
2021/10/01 12:47:38;;;;;;;8.30;1.23;;;16.50;50.80;;;;;;4899410;29;20052;-76
2021/10/01 12:50:09;;;;;;;12.50;2.60;;;16.10;51.40;;;;;;4899307;29;20410;-76
2021/10/01 12:52:39;;;;;;;9.60;1.30;;;15.80;52.10;;;;;;4900224;29;20044;-76
2021/10/01 12:55:09;;;;;;;7.07;0.70;;;15.30;52.10;;;;;;4883112;29;20052;-77
2021/10/01 12:57:38;;;;;;;6.05;0.73;;;14.90;52.70;;;;;;4899889;29;20059;-77
2021/10/01 13:00:05;;;;;;;3.55;0.60;;;14.60;52.50;;;;;;4899513;29;20045;-77
2021/10/01 13:03:01;;;;;;;1.50;0.50;;;14.40;53.20;;;;;;4882540;29;20414;-77
2021/10/01 13:05:39;;;;;;;;;;;14.30;53.20;;;;;;4883750;29;20052;-77
2021/10/01 13:08:10;;;;;;;6.60;0.63;;;14.30;52.80;;;;;;4900375;29;19930;-77
2021/10/01 13:10:54;;;;;;;5.28;0.88;;;14.30;52.90;;;;;;4899909;29;20040;-76
2021/10/01 13:13:24;;;;;;;2.53;0.57;;;14.50;53.30;;;;;;4882875;29;20053;-76
2021/10/01 13:15:55;;;;;;;5.40;0.80;;;15.40;51.80;;;;;;4910899;29;20059;-77
2021/10/01 13:18:36;;;;;;;4.07;0.70;;;16.00;50.10;;;;;;4919583;29;20052;-76
2021/10/01 13:21:11;;;;;;;3.65;0.65;;;16.30;48.40;;;;;;4929162;29;20071;-77
2021/10/01 13:23:41;;;;;;;5.68;0.68;;;16.10;47.90;;;;;;4923962;29;20056;-76
2021/10/01 13:26:11;;;;;;;7.93;0.90;;;15.80;48.60;;;;;;4927741;29;20072;-77
2021/10/01 13:28:41;;;;;;;10.75;0.73;;;15.40;49.20;;;;;;4904011;29;20075;-76
2021/10/01 13:31:09;;;;;;;4.95;0.70;;;15.20;49.80;;;;;;4924645;29;20052;-77
2021/10/01 13:33:38;;;;;;;6.57;0.95;;;15.30;50.60;;;;;;4911708;29;20078;-76
2021/10/01 13:36:05;;;;;;;1.60;0.73;;;15.20;51.30;;;;;;4885674;29;20059;-76
2021/10/01 13:38:40;;;;;;;6.75;0.90;;;15.30;51.60;;;;;;4918038;29;20063;-77
2021/10/01 13:41:12;;;;;;;2.60;0.50;;;16.10;50.30;;;;;;4917739;29;20064;-76
2021/10/01 13:43:41;;;;;;;5.18;0.98;;;16.50;46.10;;;;;;4901365;29;20056;-76
2021/10/01 13:46:11;;;;;;;4.53;0.80;;;16.50;46.60;;;;;;4918045;29;20044;-77
2021/10/01 13:48:38;;;;;;;5.53;0.93;;;16.90;46.40;;;;;;4900804;29;20051;-77
2021/10/01 13:51:07;;;;;;;3.20;0.70;;;17.20;46.40;;;;;;4917903;29;20052;-77
2021/10/01 13:53:34;;;;;;;4.47;0.80;;;17.80;43.90;;;;;;4917986;29;20515;-77
2021/10/01 13:56:03;;;;;;;4.53;0.60;;;18.40;42.30;;;;;;4918181;29;20371;-77
2021/10/01 13:58:31;;;;;;;4.25;0.63;;;18.70;41.30;;;;;;4921096;29;20048;-77
2021/10/01 14:01:00;;;;;;;5.68;0.70;;;19.00;40.50;;;;;;4925971;29;20052;-77
2021/10/01 14:03:28;;;;;;;5.57;0.60;;;19.30;40.50;;;;;;4925041;29;20063;-76
2021/10/01 14:05:57;;;;;;;5.70;0.82;;;19.40;40.40;;;;;;4924074;29;20063;-75
2021/10/01 14:08:25;;;;;;;4.43;0.80;;;19.50;40.00;;;;;;4903736;29;20501;-76
2021/10/01 14:10:53;;;;;;;3.40;0.73;;;19.80;38.50;;;;;;4919543;29;20047;-76
2021/10/01 14:13:21;;;;;;;2.53;0.70;;;20.00;38.40;;;;;;4905793;29;20075;-77
2021/10/01 14:15:54;;;;;;;3.15;0.88;;;20.30;38.20;;;;;;4898101;29;20048;-77
2021/10/01 14:18:25;;;;;;;3.47;0.57;;;20.50;36.70;;;;;;4897021;29;20041;-82
2021/10/01 14:21:09;;;;;;;5.82;0.60;;;20.50;36.00;;;;;;4869081;29;20060;-76
2021/10/01 14:23:37;;;;;;;3.28;0.65;;;20.30;36.40;;;;;;4903850;29;20064;-78
2021/10/01 14:26:05;;;;;;;4.47;1.00;;;20.30;36.50;;;;;;4912262;29;20071;-78
2021/10/01 14:28:33;;;;;;;7.57;1.05;;;20.10;37.20;;;;;;4916849;29;20126;-78
2021/10/01 14:31:01;;;;;;;3.22;0.82;;;20.20;37.30;;;;;;4892828;29;20048;-78
2021/10/01 14:33:30;;;;;;;4.60;0.90;;;20.20;37.00;;;;;;4919765;29;20056;-76
2021/10/01 14:35:57;;;;;;;4.88;1.08;;;20.30;37.80;;;;;;4913292;29;20541;-76
2021/10/01 14:38:25;;;;;;;5.68;0.90;;;20.30;38.20;;;;;;4883387;29;20040;-77
2021/10/01 14:40:53;;;;;;;6.88;1.00;;;20.40;37.90;;;;;;4899304;29;20429;-75
2021/10/01 14:43:37;;;;;;;4.50;0.73;;;20.40;38.30;;;;;;4881503;29;20051;-77
2021/10/01 14:46:06;;;;;;;3.60;0.77;;;20.50;37.60;;;;;;4898495;29;20056;-75
2021/10/01 14:48:38;;;;;;;8.07;1.17;;;20.30;38.00;;;;;;4898301;29;20052;-75
2021/10/01 14:51:07;;;;;;;5.25;0.80;;;20.10;38.50;;;;;;4884696;29;20052;-75
2021/10/01 14:53:36;;;;;;;6.95;1.00;;;20.20;38.50;;;;;;4898352;29;20044;-76
2021/10/01 14:56:03;;;;;;;5.57;1.02;;;19.80;38.80;;;;;;4896949;29;20474;-75
2021/10/01 14:58:31;;;;;;;4.30;1.10;;;19.90;39.80;;;;;;4897745;29;20049;-76
2021/10/01 15:00:59;;;;;;;6.75;1.25;;;19.60;39.80;;;;;;4889525;29;20045;-77
2021/10/01 15:03:26;;;;;;;3.55;1.08;;;18.80;40.50;;;;;;4894332;29;20060;-77
2021/10/01 15:05:54;;;;;;;4.38;1.20;;;18.40;42.40;;;;;;4899089;29;20060;-77
2021/10/01 15:08:23;;;;;;;6.72;1.35;;;18.80;42.20;;;;;;4897500;29;20067;-77
2021/10/01 15:10:51;;;;;;;2.22;0.80;;;19.50;41.50;;;;;;4897586;29;20487;-77
2021/10/01 15:13:19;;;;;;;3.67;1.02;;;19.90;40.60;;;;;;4896696;29;20054;-77
2021/10/01 15:15:47;;;;;;;4.25;0.82;;;20.10;39.40;;;;;;4897286;29;20052;-77
2021/10/01 15:18:15;;;;;;;6.03;0.90;;;20.10;38.90;;;;;;4893127;29;20053;-77
2021/10/01 15:20:44;;;;;;;4.95;0.80;;;19.90;39.30;;;;;;4896243;29;20060;-78
2021/10/01 15:23:14;;;;;;;4.85;0.82;;;19.90;39.50;;;;;;4887869;29;20063;-77
2021/10/01 15:25:43;;;;;;;6.55;0.90;;;20.00;39.10;;;;;;4885996;29;20064;-77
2021/10/01 15:28:12;;;;;;;3.55;1.00;;;19.70;40.10;;;;;;4893672;29;20048;-77
2021/10/01 15:30:41;;;;;;;6.60;1.27;;;18.90;41.00;;;;;;4898906;29;20075;-78
2021/10/01 15:33:09;;;;;;;5.45;1.17;;;18.80;41.80;;;;;;4885006;29;20053;-78
2021/10/01 15:35:37;;;;;;;10.13;1.35;;;19.10;42.30;;;;;;4892409;29;20407;-77
2021/10/01 15:38:07;;;;;;;6.47;1.23;;;19.30;42.00;;;;;;4915878;29;20051;-77
2021/10/01 15:40:39;;;;;;;5.40;1.30;;;19.00;42.10;;;;;;4916865;29;20052;-76
2021/10/01 15:43:08;;;;;;;4.50;0.90;;;19.00;43.10;;;;;;4895055;29;20065;-77
2021/10/01 15:45:37;;;;;;;4.97;1.00;;;19.10;41.80;;;;;;4876546;29;20063;-78
2021/10/01 15:48:04;;;;;;;4.53;1.00;;;19.00;41.50;;;;;;4897553;29;20493;-78
2021/10/01 15:50:33;;;;;;;12.20;1.30;;;18.70;42.10;;;;;;4915033;29;20072;-78
2021/10/01 15:53:01;;;;;;;4.90;0.75;;;17.90;43.70;;;;;;4905653;29;20529;-78
2021/10/01 15:55:29;;;;;;;6.90;0.95;;;17.10;45.40;;;;;;4893471;29;20055;-77
2021/10/01 15:57:56;;;;;;;3.92;1.10;;;16.40;46.70;;;;;;4915030;29;20071;-77
2021/10/01 16:00:25;;;;;;;4.10;0.90;;;16.10;48.30;;;;;;4915857;29;20052;-78
2021/10/01 16:02:52;;;;;;;3.78;1.08;;;15.90;48.90;;;;;;4913763;29;20051;-78
2021/10/01 16:05:21;;;;;;;4.78;1.08;;;15.60;50.20;;;;;;4878518;29;20049;-78